sensor_id;sensor_type;location;lat;lon;timestamp;pressure;altitude;pressure_sealevel;temperature;humidity
71151;BME280;59071;42.138;24.768;2023-05-19T00:01:41;99657.28;;;16.13;62.04
71151;BME280;59071;42.138;24.768;2023-05-19T00:04:12;99662.38;;;15.97;62.63
71151;BME280;59071;42.138;24.768;2023-05-19T00:06:38;99669.22;;;16.22;62.07
71151;BME280;59071;42.138;24.768;2023-05-19T00:09:06;99655.66;;;16.29;61.71
71151;BME280;59071;42.138;24.768;2023-05-19T00:11:31;99658.22;;;16.07;61.74
71151;BME280;59071;42.138;24.768;2023-05-19T00:13:57;99651.50;;;16.21;61.42
71151;BME280;59071;42.138;24.768;2023-05-19T00:16:24;99645.78;;;16.00;62.89
71151;BME280;59071;42.138;24.768;2023-05-19T00:18:50;99649.34;;;15.89;63.45
71151;BME280;59071;42.138;24.768;2023-05-19T00:21:15;99642.97;;;15.67;62.77
71151;BME280;59071;42.138;24.768;2023-05-19T00:23:41;99651.56;;;15.92;62.67
71151;BME280;59071;42.138;24.768;2023-05-19T00:26:06;99650.97;;;15.90;63.05
71151;BME280;59071;42.138;24.768;2023-05-19T00:28:31;99651.22;;;15.89;63.15
71151;BME280;59071;42.138;24.768;2023-05-19T00:30:57;99644.72;;;15.85;62.10
71151;BME280;59071;42.138;24.768;2023-05-19T00:33:22;99641.53;;;15.88;62.62
71151;BME280;59071;42.138;24.768;2023-05-19T00:35:47;99646.72;;;16.23;60.88
71151;BME280;59071;42.138;24.768;2023-05-19T00:38:12;99644.19;;;16.33;61.65
71151;BME280;59071;42.138;24.768;2023-05-19T00:40:38;99639.59;;;16.00;61.39
71151;BME280;59071;42.138;24.768;2023-05-19T00:43:03;99636.03;;;15.94;62.04
71151;BME280;59071;42.138;24.768;2023-05-19T00:45:32;99629.88;;;16.28;60.93
71151;BME280;59071;42.138;24.768;2023-05-19T00:47:58;99626.59;;;15.92;62.09
71151;BME280;59071;42.138;24.768;2023-05-19T00:50:23;99635.78;;;15.96;61.49
71151;BME280;59071;42.138;24.768;2023-05-19T00:52:49;99631.78;;;15.98;61.60
71151;BME280;59071;42.138;24.768;2023-05-19T00:55:14;99631.31;;;16.01;61.44
71151;BME280;59071;42.138;24.768;2023-05-19T00:57:40;99635.47;;;16.09;61.09
71151;BME280;59071;42.138;24.768;2023-05-19T01:00:06;99625.56;;;16.27;60.91
71151;BME280;59071;42.138;24.768;2023-05-19T01:02:32;99635.72;;;16.08;61.29
71151;BME280;59071;42.138;24.768;2023-05-19T01:04:57;99625.63;;;15.98;61.68
71151;BME280;59071;42.138;24.768;2023-05-19T01:07:23;99628.16;;;15.76;62.00
71151;BME280;59071;42.138;24.768;2023-05-19T01:09:49;99628.06;;;15.99;61.95
71151;BME280;59071;42.138;24.768;2023-05-19T01:12:15;99623.91;;;16.26;60.20
71151;BME280;59071;42.138;24.768;2023-05-19T01:14:41;99627.81;;;16.01;60.91
71151;BME280;59071;42.138;24.768;2023-05-19T01:17:08;99629.69;;;16.00;61.24
71151;BME280;59071;42.138;24.768;2023-05-19T01:29:41;99629.94;;;16.50;59.80
71151;BME280;59071;42.138;24.768;2023-05-19T01:32:06;99641.44;;;16.28;60.21
71151;BME280;59071;42.138;24.768;2023-05-19T01:34:33;99630.34;;;16.08;60.59
71151;BME280;59071;42.138;24.768;2023-05-19T01:37:01;99637.63;;;15.95;60.83
71151;BME280;59071;42.138;24.768;2023-05-19T01:39:27;99637.22;;;15.87;60.98
71151;BME280;59071;42.138;24.768;2023-05-19T01:41:53;99643.00;;;15.95;61.63
71151;BME280;59071;42.138;24.768;2023-05-19T01:44:19;99637.19;;;16.15;60.23
71151;BME280;59071;42.138;24.768;2023-05-19T01:46:46;99636.53;;;16.08;61.01
71151;BME280;59071;42.138;24.768;2023-05-19T01:49:12;99633.97;;;15.85;60.51
71151;BME280;59071;42.138;24.768;2023-05-19T01:51:37;99636.50;;;15.91;61.22
71151;BME280;59071;42.138;24.768;2023-05-19T01:54:02;99642.06;;;15.61;60.84
71151;BME280;59071;42.138;24.768;2023-05-19T01:56:33;99642.28;;;15.71;61.29
71151;BME280;59071;42.138;24.768;2023-05-19T01:59:02;99637.09;;;16.10;60.03
71151;BME280;59071;42.138;24.768;2023-05-19T02:16:49;99650.38;;;16.34;59.47
71151;BME280;59071;42.138;24.768;2023-05-19T02:19:24;99652.00;;;16.35;58.90
71151;BME280;59071;42.138;24.768;2023-05-19T02:21:50;99649.66;;;16.38;58.67
71151;BME280;59071;42.138;24.768;2023-05-19T02:24:15;99650.84;;;16.14;58.80
71151;BME280;59071;42.138;24.768;2023-05-19T02:26:40;99647.84;;;16.27;58.92
71151;BME280;59071;42.138;24.768;2023-05-19T02:29:06;99649.97;;;15.79;60.92
71151;BME280;59071;42.138;24.768;2023-05-19T02:31:31;99649.72;;;15.81;60.29
71151;BME280;59071;42.138;24.768;2023-05-19T02:33:56;99655.63;;;15.95;60.36
71151;BME280;59071;42.138;24.768;2023-05-19T02:36:22;99657.66;;;16.05;60.85
71151;BME280;59071;42.138;24.768;2023-05-19T02:38:47;99651.75;;;15.74;61.47
71151;BME280;59071;42.138;24.768;2023-05-19T02:41:12;99656.97;;;15.80;60.98
71151;BME280;59071;42.138;24.768;2023-05-19T02:43:37;99656.13;;;15.80;61.45
71151;BME280;59071;42.138;24.768;2023-05-19T02:46:03;99653.38;;;15.75;61.58
71151;BME280;59071;42.138;24.768;2023-05-19T02:48:28;99649.16;;;16.25;59.89
71151;BME280;59071;42.138;24.768;2023-05-19T02:50:53;99650.06;;;16.30;60.06
71151;BME280;59071;42.138;24.768;2023-05-19T02:53:19;99654.94;;;16.33;59.08
71151;BME280;59071;42.138;24.768;2023-05-19T02:55:44;99652.38;;;16.10;60.35
71151;BME280;59071;42.138;24.768;2023-05-19T02:58:09;99641.50;;;15.99;60.69
71151;BME280;59071;42.138;24.768;2023-05-19T03:00:34;99648.66;;;15.82;60.71
71151;BME280;59071;42.138;24.768;2023-05-19T03:03:00;99654.69;;;15.89;60.74
71151;BME280;59071;42.138;24.768;2023-05-19T03:05:27;99654.53;;;16.25;59.48
71151;BME280;59071;42.138;24.768;2023-05-19T03:07:53;99657.97;;;15.91;60.62
71151;BME280;59071;42.138;24.768;2023-05-19T03:10:18;99668.97;;;15.90;60.73
71151;BME280;59071;42.138;24.768;2023-05-19T03:12:43;99671.31;;;15.86;61.18
71151;BME280;59071;42.138;24.768;2023-05-19T03:15:09;99668.13;;;15.49;62.25
71151;BME280;59071;42.138;24.768;2023-05-19T03:17:37;99672.06;;;15.98;60.66
71151;BME280;59071;42.138;24.768;2023-05-19T03:20:03;99663.03;;;16.05;60.66
71151;BME280;59071;42.138;24.768;2023-05-19T03:22:29;99670.88;;;15.66;62.68
71151;BME280;59071;42.138;24.768;2023-05-19T03:24:54;99673.41;;;15.72;61.72
71151;BME280;59071;42.138;24.768;2023-05-19T03:27:20;99671.53;;;15.85;61.60
71151;BME280;59071;42.138;24.768;2023-05-19T03:29:45;99685.53;;;15.87;61.69
71151;BME280;59071;42.138;24.768;2023-05-19T03:32:10;99677.50;;;15.63;62.57
71151;BME280;59071;42.138;24.768;2023-05-19T03:34:36;99678.16;;;15.94;61.30
71151;BME280;59071;42.138;24.768;2023-05-19T03:37:01;99672.06;;;15.98;61.28
71151;BME280;59071;42.138;24.768;2023-05-19T03:39:26;99680.56;;;15.95;62.03
71151;BME280;59071;42.138;24.768;2023-05-19T03:41:51;99690.22;;;15.68;62.55
71151;BME280;59071;42.138;24.768;2023-05-19T03:44:17;99683.47;;;15.77;62.31
71151;BME280;59071;42.138;24.768;2023-05-19T03:46:43;99700.47;;;15.82;62.41
71151;BME280;59071;42.138;24.768;2023-05-19T03:49:08;99692.38;;;15.94;61.69
71151;BME280;59071;42.138;24.768;2023-05-19T03:51:33;99688.78;;;16.34;60.83
71151;BME280;59071;42.138;24.768;2023-05-19T03:53:58;99688.63;;;16.24;60.58
71151;BME280;59071;42.138;24.768;2023-05-19T03:56:24;99684.69;;;16.15;61.55
71151;BME280;59071;42.138;24.768;2023-05-19T03:58:51;99666.84;;;16.09;60.93
71151;BME280;59071;42.138;24.768;2023-05-19T04:01:18;99688.97;;;15.99;61.85
71151;BME280;59071;42.138;24.768;2023-05-19T04:03:44;99694.53;;;15.69;62.76
71151;BME280;59071;42.138;24.768;2023-05-19T04:06:09;99700.25;;;15.84;62.18
71151;BME280;59071;42.138;24.768;2023-05-19T04:08:34;99710.81;;;15.91;61.44
71151;BME280;59071;42.138;24.768;2023-05-19T04:11:00;99706.06;;;16.10;61.27
71151;BME280;59071;42.138;24.768;2023-05-19T04:13:25;99704.78;;;16.12;61.34
71151;BME280;59071;42.138;24.768;2023-05-19T04:15:50;99697.84;;;16.45;60.62
71151;BME280;59071;42.138;24.768;2023-05-19T04:18:16;99698.34;;;16.59;59.53
71151;BME280;59071;42.138;24.768;2023-05-19T04:20:41;99700.19;;;16.41;59.67
71151;BME280;59071;42.138;24.768;2023-05-19T04:23:06;99695.97;;;16.46;60.35
71151;BME280;59071;42.138;24.768;2023-05-19T04:25:32;99701.50;;;16.56;59.55
71151;BME280;59071;42.138;24.768;2023-05-19T04:27:59;99701.44;;;16.51;62.54
71151;BME280;59071;42.138;24.768;2023-05-19T04:30:25;99707.84;;;16.67;59.79
71151;BME280;59071;42.138;24.768;2023-05-19T04:32:50;99703.81;;;16.35;60.91
71151;BME280;59071;42.138;24.768;2023-05-19T04:35:15;99711.19;;;16.57;59.95
71151;BME280;59071;42.138;24.768;2023-05-19T04:37:44;99709.66;;;16.78;59.60
71151;BME280;59071;42.138;24.768;2023-05-19T04:40:12;99713.38;;;16.60;60.12
71151;BME280;59071;42.138;24.768;2023-05-19T04:42:38;99712.50;;;17.05;58.50
71151;BME280;59071;42.138;24.768;2023-05-19T04:45:07;99715.75;;;17.46;57.78
71151;BME280;59071;42.138;24.768;2023-05-19T04:47:33;99723.88;;;17.51;58.13
71151;BME280;59071;42.138;24.768;2023-05-19T04:50:00;99721.50;;;17.55;57.37
71151;BME280;59071;42.138;24.768;2023-05-19T04:52:26;99719.88;;;17.76;57.26
71151;BME280;59071;42.138;24.768;2023-05-19T04:54:51;99725.25;;;18.20;56.31
71151;BME280;59071;42.138;24.768;2023-05-19T04:57:17;99717.47;;;18.88;54.37
71151;BME280;59071;42.138;24.768;2023-05-19T04:59:42;99723.22;;;18.97;53.55
71151;BME280;59071;42.138;24.768;2023-05-19T05:02:07;99733.03;;;19.19;53.42
71151;BME280;59071;42.138;24.768;2023-05-19T05:04:33;99730.88;;;19.63;52.04
71151;BME280;59071;42.138;24.768;2023-05-19T05:06:58;99735.03;;;19.97;51.35
71151;BME280;59071;42.138;24.768;2023-05-19T05:09:23;99741.06;;;20.24;50.63
71151;BME280;59071;42.138;24.768;2023-05-19T05:11:49;99737.88;;;20.63;49.57
71151;BME280;59071;42.138;24.768;2023-05-19T05:14:15;99748.13;;;20.46;50.28
71151;BME280;59071;42.138;24.768;2023-05-19T05:16:41;99741.63;;;20.42;49.25
71151;BME280;59071;42.138;24.768;2023-05-19T05:19:07;99746.75;;;21.31;48.13
71151;BME280;59071;42.138;24.768;2023-05-19T05:21:32;99739.47;;;21.16;47.41
71151;BME280;59071;42.138;24.768;2023-05-19T05:23:58;99740.22;;;21.37;47.63
71151;BME280;59071;42.138;24.768;2023-05-19T05:26:24;99737.63;;;21.92;45.96
71151;BME280;59071;42.138;24.768;2023-05-19T05:28:52;99741.22;;;22.21;45.87
71151;BME280;59071;42.138;24.768;2023-05-19T05:31:17;99737.44;;;22.28;45.39
71151;BME280;59071;42.138;24.768;2023-05-19T05:33:45;99740.97;;;22.28;45.80
71151;BME280;59071;42.138;24.768;2023-05-19T05:36:10;99740.94;;;22.23;45.82
71151;BME280;59071;42.138;24.768;2023-05-19T05:38:35;99733.91;;;22.27;45.35
71151;BME280;59071;42.138;24.768;2023-05-19T05:41:00;99753.22;;;22.10;45.61
71151;BME280;59071;42.138;24.768;2023-05-19T05:43:27;99753.03;;;22.46;44.82
71151;BME280;59071;42.138;24.768;2023-05-19T05:45:52;99753.00;;;22.51;44.32
71151;BME280;59071;42.138;24.768;2023-05-19T05:48:17;99754.53;;;23.74;42.91
71151;BME280;59071;42.138;24.768;2023-05-19T05:50:43;99758.41;;;23.44;43.15
71151;BME280;59071;42.138;24.768;2023-05-19T05:53:09;99758.69;;;23.91;42.54
71151;BME280;59071;42.138;24.768;2023-05-19T05:55:40;99761.59;;;24.56;41.20
71151;BME280;59071;42.138;24.768;2023-05-19T05:58:05;99761.13;;;25.01;40.28
71151;BME280;59071;42.138;24.768;2023-05-19T06:00:34;99772.34;;;24.81;40.63
71151;BME280;59071;42.138;24.768;2023-05-19T06:03:00;99775.13;;;24.94;40.33
71151;BME280;59071;42.138;24.768;2023-05-19T06:05:27;99773.94;;;24.68;40.72
71151;BME280;59071;42.138;24.768;2023-05-19T06:07:52;99781.19;;;24.72;40.97
71151;BME280;59071;42.138;24.768;2023-05-19T06:10:17;99782.38;;;24.47;41.63
71151;BME280;59071;42.138;24.768;2023-05-19T06:12:43;99783.47;;;24.27;41.54
71151;BME280;59071;42.138;24.768;2023-05-19T06:15:08;99784.72;;;24.73;41.11
71151;BME280;59071;42.138;24.768;2023-05-19T06:17:33;99792.53;;;24.23;40.82
71151;BME280;59071;42.138;24.768;2023-05-19T06:20:02;99795.00;;;23.52;43.25
71151;BME280;59071;42.138;24.768;2023-05-19T06:22:29;99790.84;;;22.67;44.57
71151;BME280;59071;42.138;24.768;2023-05-19T06:24:54;99797.59;;;22.69;45.04
71151;BME280;59071;42.138;24.768;2023-05-19T06:27:20;99796.53;;;22.65;44.42
71151;BME280;59071;42.138;24.768;2023-05-19T06:29:45;99784.25;;;23.90;43.04
71151;BME280;59071;42.138;24.768;2023-05-19T06:32:10;99800.91;;;24.45;41.63
71151;BME280;59071;42.138;24.768;2023-05-19T06:34:36;99800.16;;;24.20;41.81
71151;BME280;59071;42.138;24.768;2023-05-19T06:37:02;99803.69;;;24.78;41.17
71151;BME280;59071;42.138;24.768;2023-05-19T06:39:28;99799.38;;;23.48;43.28
71151;BME280;59071;42.138;24.768;2023-05-19T06:41:53;99802.72;;;23.10;44.65
71151;BME280;59071;42.138;24.768;2023-05-19T06:44:18;99800.25;;;23.67;44.26
71151;BME280;59071;42.138;24.768;2023-05-19T06:46:43;99798.81;;;23.75;44.31
71151;BME280;59071;42.138;24.768;2023-05-19T06:49:09;99793.75;;;24.11;43.18
71151;BME280;59071;42.138;24.768;2023-05-19T06:51:35;99803.63;;;24.45;42.86
71151;BME280;59071;42.138;24.768;2023-05-19T06:54:00;99802.97;;;24.34;43.26
71151;BME280;59071;42.138;24.768;2023-05-19T06:56:25;99789.91;;;24.55;42.53
71151;BME280;59071;42.138;24.768;2023-05-19T06:58:51;99796.41;;;24.92;42.01
71151;BME280;59071;42.138;24.768;2023-05-19T07:01:16;99794.03;;;24.53;42.66
71151;BME280;59071;42.138;24.768;2023-05-19T07:03:41;99789.47;;;25.00;42.19
71151;BME280;59071;42.138;24.768;2023-05-19T07:06:07;99793.41;;;24.75;42.33
71151;BME280;59071;42.138;24.768;2023-05-19T07:08:32;99790.63;;;24.61;43.27
71151;BME280;59071;42.138;24.768;2023-05-19T07:10:58;99796.03;;;25.13;41.48
71151;BME280;59071;42.138;24.768;2023-05-19T07:13:23;99789.97;;;25.77;40.90
71151;BME280;59071;42.138;24.768;2023-05-19T07:15:49;99781.97;;;24.59;42.17
71151;BME280;59071;42.138;24.768;2023-05-19T07:18:16;99786.56;;;24.77;41.85
71151;BME280;59071;42.138;24.768;2023-05-19T07:20:41;99791.06;;;23.63;43.90
71151;BME280;59071;42.138;24.768;2023-05-19T07:23:06;99785.97;;;24.24;43.89
71151;BME280;59071;42.138;24.768;2023-05-19T07:25:32;99788.97;;;24.98;43.35
71151;BME280;59071;42.138;24.768;2023-05-19T07:27:57;99794.69;;;24.96;42.31
71151;BME280;59071;42.138;24.768;2023-05-19T07:30:23;99792.31;;;25.55;41.30
71151;BME280;59071;42.138;24.768;2023-05-19T07:32:48;99796.19;;;26.55;39.91
71151;BME280;59071;42.138;24.768;2023-05-19T07:35:13;99802.19;;;25.79;41.11
71151;BME280;59071;42.138;24.768;2023-05-19T07:37:39;99787.50;;;26.30;39.80
71151;BME280;59071;42.138;24.768;2023-05-19T07:40:04;99799.66;;;27.06;38.93
71151;BME280;59071;42.138;24.768;2023-05-19T07:42:30;99799.66;;;27.68;37.85
71151;BME280;59071;42.138;24.768;2023-05-19T07:44:56;99796.22;;;27.00;38.59
71151;BME280;59071;42.138;24.768;2023-05-19T07:47:21;99802.53;;;27.32;38.07
71151;BME280;59071;42.138;24.768;2023-05-19T07:49:46;99794.78;;;27.25;37.98
71151;BME280;59071;42.138;24.768;2023-05-19T07:52:11;99801.75;;;27.80;37.63
71151;BME280;59071;42.138;24.768;2023-05-19T07:54:37;99805.88;;;28.09;36.72
71151;BME280;59071;42.138;24.768;2023-05-19T07:57:02;99806.75;;;27.38;36.13
71151;BME280;59071;42.138;24.768;2023-05-19T07:59:27;99807.84;;;27.37;37.65
71151;BME280;59071;42.138;24.768;2023-05-19T08:01:53;99811.38;;;27.38;37.75
71151;BME280;59071;42.138;24.768;2023-05-19T08:04:18;99809.91;;;27.32;37.14
71151;BME280;59071;42.138;24.768;2023-05-19T08:06:43;99814.06;;;28.00;37.08
71151;BME280;59071;42.138;24.768;2023-05-19T08:09:09;99817.53;;;28.76;34.42
71151;BME280;59071;42.138;24.768;2023-05-19T08:11:34;99820.00;;;27.94;35.74
71151;BME280;59071;42.138;24.768;2023-05-19T08:13:59;99825.81;;;28.10;36.10
71151;BME280;59071;42.138;24.768;2023-05-19T08:16:25;99828.78;;;27.82;36.34
71151;BME280;59071;42.138;24.768;2023-05-19T08:18:50;99819.66;;;27.01;37.61
71151;BME280;59071;42.138;24.768;2023-05-19T08:21:16;99820.34;;;27.29;37.59
71151;BME280;59071;42.138;24.768;2023-05-19T08:23:41;99812.22;;;27.87;35.55
71151;BME280;59071;42.138;24.768;2023-05-19T08:26:06;99813.84;;;27.88;35.79
71151;BME280;59071;42.138;24.768;2023-05-19T08:28:32;99814.94;;;27.38;36.72
71151;BME280;59071;42.138;24.768;2023-05-19T08:30:57;99820.53;;;28.31;36.04
71151;BME280;59071;42.138;24.768;2023-05-19T08:33:22;99814.13;;;27.78;36.08
71151;BME280;59071;42.138;24.768;2023-05-19T08:35:48;99812.47;;;27.59;36.90
71151;BME280;59071;42.138;24.768;2023-05-19T08:38:13;99815.03;;;28.04;36.73
71151;BME280;59071;42.138;24.768;2023-05-19T08:40:41;99800.81;;;27.45;36.56
71151;BME280;59071;42.138;24.768;2023-05-19T08:43:07;99815.44;;;27.80;36.39
71151;BME280;59071;42.138;24.768;2023-05-19T08:45:32;99819.13;;;28.94;34.73
71151;BME280;59071;42.138;24.768;2023-05-19T08:48:02;99807.06;;;28.78;34.11
71151;BME280;59071;42.138;24.768;2023-05-19T08:50:28;99809.25;;;29.11;33.39
71151;BME280;59071;42.138;24.768;2023-05-19T08:57:46;99800.53;;;30.03;32.65
71151;BME280;59071;42.138;24.768;2023-05-19T09:00:12;99807.13;;;29.72;33.56
71151;BME280;59071;42.138;24.768;2023-05-19T09:02:38;99805.09;;;28.87;33.94
71151;BME280;59071;42.138;24.768;2023-05-19T09:05:04;99801.56;;;28.78;34.65
71151;BME280;59071;42.138;24.768;2023-05-19T09:07:31;99806.56;;;28.84;34.53
71151;BME280;59071;42.138;24.768;2023-05-19T09:09:59;99808.94;;;29.98;33.01
71151;BME280;59071;42.138;24.768;2023-05-19T09:12:25;99803.56;;;30.31;32.01
71151;BME280;59071;42.138;24.768;2023-05-19T09:14:50;99805.91;;;29.91;32.35
71151;BME280;59071;42.138;24.768;2023-05-19T09:17:16;99804.50;;;30.35;29.81
71151;BME280;59071;42.138;24.768;2023-05-19T09:19:45;99802.50;;;29.94;31.09
71151;BME280;59071;42.138;24.768;2023-05-19T09:22:12;99792.00;;;30.80;30.92
71151;BME280;59071;42.138;24.768;2023-05-19T09:24:38;99792.88;;;31.51;30.08
71151;BME280;59071;42.138;24.768;2023-05-19T09:27:04;99794.31;;;31.11;30.39
71151;BME280;59071;42.138;24.768;2023-05-19T09:29:29;99795.75;;;31.67;30.07
71151;BME280;59071;42.138;24.768;2023-05-19T09:31:55;99791.53;;;30.45;31.06
71151;BME280;59071;42.138;24.768;2023-05-19T09:34:24;99794.50;;;31.06;30.03
71151;BME280;59071;42.138;24.768;2023-05-19T09:36:51;99791.78;;;31.18;29.85
71151;BME280;59071;42.138;24.768;2023-05-19T09:39:23;99796.66;;;31.95;29.72
71151;BME280;59071;42.138;24.768;2023-05-19T09:41:50;99786.72;;;31.66;29.54
71151;BME280;59071;42.138;24.768;2023-05-19T09:44:23;99796.78;;;30.50;29.80
71151;BME280;59071;42.138;24.768;2023-05-19T09:46:53;99787.59;;;31.83;28.78
71151;BME280;59071;42.138;24.768;2023-05-19T09:51:44;99779.25;;;31.54;29.77
71151;BME280;59071;42.138;24.768;2023-05-19T09:54:13;99780.69;;;32.13;28.80
71151;BME280;59071;42.138;24.768;2023-05-19T09:56:38;99777.22;;;32.69;26.43
71151;BME280;59071;42.138;24.768;2023-05-19T09:59:04;99776.72;;;32.39;26.95
71151;BME280;59071;42.138;24.768;2023-05-19T10:01:31;99789.81;;;30.10;29.19
71151;BME280;59071;42.138;24.768;2023-05-19T10:03:57;99786.09;;;30.57;29.70
71151;BME280;59071;42.138;24.768;2023-05-19T10:06:23;99779.22;;;31.42;27.39
71151;BME280;59071;42.138;24.768;2023-05-19T10:08:50;99780.06;;;31.80;27.73
71151;BME280;59071;42.138;24.768;2023-05-19T10:11:15;99781.16;;;32.15;27.04
71151;BME280;59071;42.138;24.768;2023-05-19T10:13:41;99782.88;;;30.34;28.30
71151;BME280;59071;42.138;24.768;2023-05-19T10:16:07;99776.34;;;31.38;27.52
71151;BME280;59071;42.138;24.768;2023-05-19T10:18:33;99773.06;;;31.82;28.23
71151;BME280;59071;42.138;24.768;2023-05-19T10:20:59;99776.22;;;31.96;27.59
71151;BME280;59071;42.138;24.768;2023-05-19T10:23:24;99768.34;;;31.95;27.81
71151;BME280;59071;42.138;24.768;2023-05-19T10:25:50;99762.09;;;32.23;26.98
71151;BME280;59071;42.138;24.768;2023-05-19T10:28:18;99761.72;;;31.71;27.32
71151;BME280;59071;42.138;24.768;2023-05-19T10:30:49;99758.00;;;31.92;27.47
71151;BME280;59071;42.138;24.768;2023-05-19T10:33:17;99755.66;;;31.53;28.05
71151;BME280;59071;42.138;24.768;2023-05-19T10:38:40;99748.03;;;32.00;27.42
71151;BME280;59071;42.138;24.768;2023-05-19T10:43:48;99750.34;;;32.38;28.83
71151;BME280;59071;42.138;24.768;2023-05-19T10:46:15;99753.91;;;31.73;28.45
71151;BME280;59071;42.138;24.768;2023-05-19T10:48:43;99759.56;;;30.19;28.20
71151;BME280;59071;42.138;24.768;2023-05-19T10:51:10;99756.19;;;29.33;29.90
71151;BME280;59071;42.138;24.768;2023-05-19T10:53:37;99752.06;;;29.86;30.53
71151;BME280;59071;42.138;24.768;2023-05-19T10:56:04;99755.41;;;30.13;29.73
71151;BME280;59071;42.138;24.768;2023-05-19T10:59:04;99759.72;;;29.33;29.18
71151;BME280;59071;42.138;24.768;2023-05-19T11:01:28;99761.06;;;29.18;30.68
71151;BME280;59071;42.138;24.768;2023-05-19T11:03:54;99759.56;;;28.13;32.28
71151;BME280;59071;42.138;24.768;2023-05-19T11:06:30;99762.59;;;28.81;31.74
71151;BME280;59071;42.138;24.768;2023-05-19T11:08:59;99773.34;;;29.89;31.55
71151;BME280;59071;42.138;24.768;2023-05-19T11:11:25;99779.97;;;28.33;31.64
71151;BME280;59071;42.138;24.768;2023-05-19T11:13:54;99779.06;;;27.00;33.71
71151;BME280;59071;42.138;24.768;2023-05-19T11:16:26;99770.31;;;26.66;34.28
71151;BME280;59071;42.138;24.768;2023-05-19T11:18:52;99759.78;;;25.87;36.46
71151;BME280;59071;42.138;24.768;2023-05-19T11:21:18;99771.97;;;24.87;38.74
71151;BME280;59071;42.138;24.768;2023-05-19T11:23:43;99769.97;;;24.41;39.14
71151;BME280;59071;42.138;24.768;2023-05-19T11:26:09;99768.59;;;23.57;39.85
71151;BME280;59071;42.138;24.768;2023-05-19T11:28:34;99762.56;;;23.60;40.89
71151;BME280;59071;42.138;24.768;2023-05-19T11:31:00;99754.59;;;23.93;40.89
71151;BME280;59071;42.138;24.768;2023-05-19T11:33:26;99764.59;;;24.17;40.13
71151;BME280;59071;42.138;24.768;2023-05-19T11:35:52;99785.34;;;25.03;37.96
71151;BME280;59071;42.138;24.768;2023-05-19T11:38:18;99770.72;;;25.59;37.63
71151;BME280;59071;42.138;24.768;2023-05-19T11:40:43;99756.16;;;26.05;36.25
71151;BME280;59071;42.138;24.768;2023-05-19T11:43:08;99751.44;;;26.56;36.36
71151;BME280;59071;42.138;24.768;2023-05-19T11:45:34;99745.44;;;26.90;35.55
71151;BME280;59071;42.138;24.768;2023-05-19T11:47:59;99750.03;;;27.44;34.93
71151;BME280;59071;42.138;24.768;2023-05-19T11:50:25;99745.91;;;27.24;33.66
71151;BME280;59071;42.138;24.768;2023-05-19T11:52:51;99740.34;;;27.29;33.46
71151;BME280;59071;42.138;24.768;2023-05-19T11:55:17;99741.06;;;27.52;33.97
71151;BME280;59071;42.138;24.768;2023-05-19T11:57:58;99742.69;;;27.22;34.90
71151;BME280;59071;42.138;24.768;2023-05-19T12:00:27;99739.75;;;27.41;33.57
71151;BME280;59071;42.138;24.768;2023-05-19T12:02:53;99734.81;;;27.60;33.45
71151;BME280;59071;42.138;24.768;2023-05-19T12:05:22;99734.28;;;28.33;32.36
71151;BME280;59071;42.138;24.768;2023-05-19T12:07:48;99735.88;;;28.69;31.91
71151;BME280;59071;42.138;24.768;2023-05-19T12:10:15;99730.09;;;28.62;32.13
71151;BME280;59071;42.138;24.768;2023-05-19T12:12:41;99732.53;;;29.11;31.43
71151;BME280;59071;42.138;24.768;2023-05-19T12:15:06;99726.75;;;29.21;31.49
71151;BME280;59071;42.138;24.768;2023-05-19T12:17:32;99737.88;;;29.84;29.16
71151;BME280;59071;42.138;24.768;2023-05-19T12:19:57;99722.53;;;30.25;28.80
71151;BME280;59071;42.138;24.768;2023-05-19T12:22:23;99729.09;;;30.54;29.04
71151;BME280;59071;42.138;24.768;2023-05-19T12:24:48;99723.38;;;30.26;28.58
71151;BME280;59071;42.138;24.768;2023-05-19T12:27:18;99726.13;;;30.47;29.11
71151;BME280;59071;42.138;24.768;2023-05-19T12:29:53;99721.84;;;30.70;29.67
71151;BME280;59071;42.138;24.768;2023-05-19T12:32:22;99719.44;;;31.64;29.22
71151;BME280;59071;42.138;24.768;2023-05-19T12:34:48;99713.25;;;32.48;27.41
71151;BME280;59071;42.138;24.768;2023-05-19T12:37:13;99713.38;;;31.99;27.47
71151;BME280;59071;42.138;24.768;2023-05-19T12:39:40;99703.88;;;32.37;27.80
71151;BME280;59071;42.138;24.768;2023-05-19T12:42:09;99710.56;;;32.64;27.00
71151;BME280;59071;42.138;24.768;2023-05-19T12:44:35;99703.34;;;32.59;26.19
71151;BME280;59071;42.138;24.768;2023-05-19T12:47:02;99706.34;;;33.14;26.22
71151;BME280;59071;42.138;24.768;2023-05-19T12:49:28;99698.69;;;32.19;26.56
71151;BME280;59071;42.138;24.768;2023-05-19T12:51:54;99703.44;;;32.63;27.18
71151;BME280;59071;42.138;24.768;2023-05-19T12:54:19;99696.59;;;32.28;27.08
71151;BME280;59071;42.138;24.768;2023-05-19T12:56:49;99696.13;;;32.26;26.69
71151;BME280;59071;42.138;24.768;2023-05-19T12:59:24;99683.31;;;31.77;27.22
71151;BME280;59071;42.138;24.768;2023-05-19T13:01:56;99685.91;;;32.27;27.03
71151;BME280;59071;42.138;24.768;2023-05-19T13:04:22;99685.13;;;31.86;27.69
71151;BME280;59071;42.138;24.768;2023-05-19T13:06:47;99683.47;;;32.09;27.62
71151;BME280;59071;42.138;24.768;2023-05-19T13:09:14;99687.63;;;32.31;26.54
71151;BME280;59071;42.138;24.768;2023-05-19T13:11:39;99691.72;;;31.44;26.36
71151;BME280;59071;42.138;24.768;2023-05-19T13:14:04;99686.34;;;32.13;25.56
71151;BME280;59071;42.138;24.768;2023-05-19T13:16:30;99685.44;;;32.53;25.78
71151;BME280;59071;42.138;24.768;2023-05-19T13:18:55;99689.63;;;32.19;26.39
71151;BME280;59071;42.138;24.768;2023-05-19T13:21:20;99668.91;;;31.68;27.01
71151;BME280;59071;42.138;24.768;2023-05-19T13:23:46;99686.16;;;31.81;26.55